cingcivil.com alexa rank chart, cingcivil.com alexa rank daily changes

cingcivil.com alexa rank chart, cingcivil.com alexa rank daily changes

cingcivil.com
Actual rank:
159 338

RANK HISTORY

Date Rank Diff
2017/10/22 159 338 -576
2017/10/21 159 914 -752
2017/10/20 160 666 -1 126
2017/10/19 161 792 +1 846
2017/10/18 159 946 -827
2017/10/17 160 773 -468
2017/10/16 161 241 -2 404
2017/10/14 163 645 -5 369
2017/10/13 169 014 -2 807
2017/10/12 171 821 -2 869
2017/10/11 174 690 -2 094
2017/10/10 176 784 -783
2017/10/09 177 567 -1 683
2017/10/08 179 250 -3 248
2017/10/07 182 498 -2 370
2017/10/06 184 868 +2 626
2017/10/05 182 242 +232
2017/10/04 182 010 +3 855
2017/10/03 178 155 +3 334
2017/10/02 174 821 -302
2017/10/01 175 123 -1 196
2017/09/30 176 319 -877
2017/09/29 177 196 +1 091
2017/09/28 176 105 +1 386
2017/09/27 174 719 +2 759
2017/09/26 171 960 +997
2017/09/25 170 963 +744
2017/09/24 170 219 +1 687
2017/09/23 168 532 +3 637
2017/09/22 164 895 +1 697
2017/09/20 163 198 +81
2017/09/19 163 117 +2 598
2017/09/18 160 519 +1 428
2017/09/17 159 091 +980
2017/09/16 158 111 -1 053
2017/09/15 159 164 -1 839
2017/09/14 161 003 +2 009
2017/09/13 158 994 +459
2017/09/12 158 535 +1 030
2017/09/11 157 505 -2 209
2017/09/10 159 714 +1 066
2017/09/09 158 648 +2 192
2017/09/08 156 456 +3 072
2017/09/07 153 384 +230
2017/09/06 153 154 -834
2017/09/05 153 988 +789
2017/09/04 153 199 -2 786
2017/09/03 155 985 -1 875
2017/09/02 157 860 -997
2017/09/01 158 857 -682
2017/08/31 159 539 +4 307
2017/08/30 155 232 -1 411
2017/08/29 156 643 -323
2017/08/28 156 966 -212
2017/08/27 157 178 -1 308
2017/08/26 158 486 +946
2017/08/25 157 540 -130
2017/08/24 157 670 +466
2017/08/23 157 204

WIDGET FOR YOUR SITE

DOMAINS WITH THE NEAREST RANK

Domain Rank
woow.com.uy 159 333
pornvube.com 159 334
moneybox.jp 159 335
qmu.ac.uk 159 336
avg.co.jp 159 337
cingcivil.com 159 338
alljob.org 159 339
dj.ru 159 340
parstools.com 159 341
keytas.ru 159 342
xxx-hd-teens.com 159 343

DOMAINS WITH THE NEAREST RANK BY TLD .com

Domain Rank
audiokinetic.com 159 326
heardcountyrecreationdepartment.com 159 328
sitappa.com 159 330
beautifulagony.com 159 331
pornvube.com 159 334
cingcivil.com 159 338
parstools.com 159 341
xxx-hd-teens.com 159 343
webnovinar.com 159 344
paimi.com 159 345
izy.com 159 346